createdAt,value
2023-03-22T00:00:19.652Z,44.30
2023-03-22T00:02:47.095Z,45.63
2023-03-22T00:05:14.345Z,43.33
2023-03-22T00:07:41.484Z,47.70
2023-03-22T00:10:09.408Z,46.10
2023-03-22T00:12:36.614Z,51.70
2023-03-22T00:15:04.224Z,52.23
2023-03-22T00:17:32.838Z,49.40
2023-03-22T00:20:00.150Z,47.00
2023-03-22T00:22:27.300Z,50.57
2023-03-22T00:24:54.482Z,48.83
2023-03-22T00:27:21.562Z,52.03
2023-03-22T00:29:48.821Z,53.07
2023-03-22T00:32:16.476Z,53.73
2023-03-22T00:34:43.777Z,52.50
2023-03-22T00:37:10.987Z,53.87
2023-03-22T00:39:38.196Z,54.97
2023-03-22T00:42:07.018Z,49.50
2023-03-22T00:44:34.674Z,48.27
2023-03-22T00:47:01.895Z,51.30
2023-03-22T00:49:31.233Z,54.53
2023-03-22T00:51:58.465Z,50.67
2023-03-22T00:54:25.828Z,52.60
2023-03-22T00:56:53.011Z,55.63
2023-03-22T00:59:20.519Z,51.37
2023-03-22T01:01:48.223Z,52.40
2023-03-22T01:04:18.034Z,49.87
2023-03-22T01:06:47.135Z,50.87
2023-03-22T01:09:15.100Z,51.63
2023-03-22T01:11:43.807Z,51.23
2023-03-22T01:14:13.781Z,53.20
2023-03-22T01:16:41.173Z,52.03
2023-03-22T01:19:09.009Z,56.13
2023-03-22T01:21:36.477Z,55.17
2023-03-22T01:24:03.872Z,57.53
2023-03-22T01:26:31.245Z,59.03
2023-03-22T01:28:58.366Z,53.47
2023-03-22T01:31:25.838Z,57.70
2023-03-22T01:33:52.966Z,58.53
2023-03-22T01:36:21.885Z,64.43
2023-03-22T01:38:49.084Z,62.30
2023-03-22T01:41:17.560Z,61.10
2023-03-22T01:43:45.880Z,65.07
2023-03-22T01:46:13.160Z,64.13
2023-03-22T01:48:46.336Z,59.83
2023-03-22T01:51:22.988Z,59.43
2023-03-22T01:54:10.092Z,62.97
2023-03-22T01:56:41.464Z,63.97
2023-03-22T01:59:15.454Z,63.00
2023-03-22T02:02:19.284Z,61.80
2023-03-22T02:04:57.942Z,60.53
2023-03-22T02:07:28.006Z,64.07
2023-03-22T02:09:56.947Z,59.97
2023-03-22T02:12:56.159Z,63.43
2023-03-22T02:16:00.036Z,56.97
2023-03-22T02:19:29.183Z,56.33
2023-03-22T02:22:25.895Z,61.63
2023-03-22T02:25:49.287Z,60.83
2023-03-22T02:28:43.881Z,58.03
2023-03-22T02:31:27.775Z,58.03
2023-03-22T02:34:28.671Z,57.07
2023-03-22T02:37:22.766Z,60.03
2023-03-22T02:40:18.889Z,61.57
2023-03-22T02:43:06.910Z,58.40
2023-03-22T02:45:44.952Z,59.90
2023-03-22T02:48:22.510Z,57.40
2023-03-22T02:50:56.030Z,58.37
2023-03-22T02:53:43.659Z,52.53
2023-03-22T02:56:22.514Z,59.43
2023-03-22T02:58:57.303Z,53.30
2023-03-22T03:01:37.393Z,56.57
2023-03-22T03:04:10.089Z,57.80
2023-03-22T03:06:46.597Z,55.73
2023-03-22T03:09:19.565Z,58.50
2023-03-22T03:11:52.839Z,51.83
2023-03-22T03:14:32.077Z,48.63
2023-03-22T03:17:38.652Z,54.27
2023-03-22T03:20:30.240Z,58.87
2023-03-22T03:23:00.451Z,57.80
2023-03-22T03:25:46.264Z,53.07
2023-03-22T03:28:22.978Z,53.53
2023-03-22T03:31:09.879Z,57.03
2023-03-22T03:33:51.481Z,52.30
2023-03-22T03:36:20.449Z,49.33
2023-03-22T03:38:52.053Z,50.10
2023-03-22T03:41:25.635Z,49.50
2023-03-22T03:43:54.453Z,57.37
2023-03-22T03:46:22.029Z,56.73
2023-03-22T03:48:51.955Z,53.67
2023-03-22T03:51:19.657Z,47.47
2023-03-22T03:53:47.149Z,47.97
2023-03-22T03:56:14.537Z,49.00
2023-03-22T03:58:47.337Z,43.87
2023-03-22T04:01:14.729Z,48.73
2023-03-22T04:03:55.499Z,50.13
2023-03-22T04:06:44.670Z,50.07
2023-03-22T04:09:17.535Z,45.00
2023-03-22T04:11:49.460Z,42.37
2023-03-22T04:14:17.841Z,44.13
2023-03-22T04:16:48.387Z,42.67
2023-03-22T04:19:19.722Z,45.80
2023-03-22T04:21:47.096Z,47.93
2023-03-22T04:24:14.900Z,42.37
2023-03-22T04:26:44.848Z,40.93
2023-03-22T04:29:22.068Z,40.93
2023-03-22T04:31:54.194Z,40.77
2023-03-22T04:34:34.147Z,40.33
2023-03-22T04:37:03.531Z,40.50
2023-03-22T04:39:32.749Z,39.33
2023-03-22T04:42:28.732Z,41.80
2023-03-22T04:45:13.588Z,39.63
2023-03-22T04:47:43.351Z,41.27
2023-03-22T04:50:11.769Z,43.17
2023-03-22T04:52:50.002Z,43.63
2023-03-22T04:55:17.686Z,46.97
2023-03-22T04:57:46.137Z,41.90
2023-03-22T05:00:13.882Z,37.37
2023-03-22T05:02:41.858Z,40.67
2023-03-22T05:05:17.202Z,40.57
2023-03-22T05:07:46.103Z,38.27
2023-03-22T05:10:13.545Z,43.63
2023-03-22T05:12:41.437Z,48.27
2023-03-22T05:15:17.296Z,45.63
2023-03-22T05:17:44.918Z,42.07
2023-03-22T05:20:12.169Z,42.23
2023-03-22T05:22:41.457Z,40.73
2023-03-22T05:25:11.573Z,40.93
2023-03-22T05:27:42.051Z,40.57
2023-03-22T05:30:35.005Z,42.67
2023-03-22T05:33:22.098Z,39.63
2023-03-22T05:35:53.134Z,39.60
2023-03-22T05:38:22.837Z,36.57
2023-03-22T05:40:53.211Z,35.17
2023-03-22T05:43:20.894Z,37.77
2023-03-22T05:45:51.000Z,35.27
2023-03-22T05:48:44.564Z,35.13
2023-03-22T05:51:17.655Z,33.63
2023-03-22T05:53:48.193Z,33.10
2023-03-22T05:56:24.509Z,34.07
2023-03-22T05:58:59.439Z,29.00
2023-03-22T06:01:26.891Z,28.33
2023-03-22T06:04:09.977Z,30.87
2023-03-22T06:06:49.017Z,24.37
2023-03-22T06:09:31.941Z,25.43
2023-03-22T06:12:00.278Z,28.30
2023-03-22T06:14:27.732Z,23.07
2023-03-22T06:17:07.334Z,22.57
2023-03-22T06:19:34.719Z,23.70
2023-03-22T06:22:04.828Z,22.97
2023-03-22T06:24:34.800Z,21.67
2023-03-22T06:27:03.189Z,20.10
2023-03-22T06:29:31.282Z,21.27
2023-03-22T06:32:01.874Z,23.50
2023-03-22T06:34:30.990Z,22.80
2023-03-22T06:36:59.378Z,19.83
2023-03-22T06:39:38.718Z,22.27
2023-03-22T06:42:06.417Z,20.83
2023-03-22T06:44:34.277Z,16.97
2023-03-22T06:47:21.753Z,18.67
2023-03-22T06:49:58.330Z,18.17
2023-03-22T06:52:37.126Z,17.80
2023-03-22T06:55:09.136Z,16.87
2023-03-22T06:57:36.554Z,19.20
2023-03-22T07:00:05.341Z,15.93
2023-03-22T07:02:32.891Z,16.00
2023-03-22T07:05:26.798Z,15.20
2023-03-22T07:07:54.446Z,13.63
2023-03-22T07:10:21.965Z,15.97
2023-03-22T07:12:50.837Z,13.70
2023-03-22T07:15:18.690Z,14.93
2023-03-22T07:17:53.193Z,12.80
2023-03-22T07:20:20.545Z,12.37
2023-03-22T07:22:51.972Z,11.27
2023-03-22T07:25:21.502Z,12.43
2023-03-22T07:27:54.580Z,11.43
2023-03-22T07:30:22.602Z,12.20
2023-03-22T07:32:50.009Z,10.40
2023-03-22T07:35:18.926Z,12.33
2023-03-22T07:37:48.566Z,10.80
2023-03-22T07:40:23.551Z,14.20
2023-03-22T07:42:54.833Z,13.37
2023-03-22T07:45:41.871Z,11.90
2023-03-22T07:48:39.069Z,10.87
2023-03-22T07:51:35.268Z,11.47
2023-03-22T07:54:06.398Z,11.73
2023-03-22T07:56:35.731Z,10.20
2023-03-22T07:59:03.472Z,11.87
2023-03-22T08:01:31.092Z,10.33
2023-03-22T08:04:06.897Z,11.83
2023-03-22T08:06:58.643Z,12.80
2023-03-22T08:09:26.766Z,10.87
2023-03-22T08:11:53.996Z,11.00
2023-03-22T08:14:27.437Z,12.00
2023-03-22T08:17:06.021Z,9.60
2023-03-22T08:19:34.821Z,9.77
2023-03-22T08:22:03.284Z,10.97
2023-03-22T08:24:50.583Z,8.67
2023-03-22T08:27:26.417Z,12.07
2023-03-22T08:29:54.806Z,10.73
2023-03-22T08:32:22.227Z,8.53
2023-03-22T08:34:49.413Z,10.47
2023-03-22T08:37:16.688Z,9.47
2023-03-22T08:39:45.923Z,9.83
2023-03-22T08:42:21.319Z,15.67
2023-03-22T08:44:49.224Z,9.87
2023-03-22T08:47:16.624Z,10.77
2023-03-22T08:49:47.835Z,9.43
2023-03-22T08:52:22.811Z,9.87
2023-03-22T08:54:57.136Z,11.13
2023-03-22T08:57:44.511Z,10.37
2023-03-22T09:00:25.584Z,9.43
2023-03-22T09:03:09.397Z,9.73
2023-03-22T09:05:38.094Z,9.53
2023-03-22T09:08:06.935Z,10.23
2023-03-22T09:10:51.284Z,9.63
2023-03-22T09:13:21.111Z,11.10
2023-03-22T09:15:54.726Z,10.43
2023-03-22T09:18:28.063Z,7.70
2023-03-22T09:20:59.811Z,7.97
2023-03-22T09:23:34.129Z,9.90
2023-03-22T09:26:07.024Z,9.87
2023-03-22T09:28:36.122Z,8.40
2023-03-22T09:31:09.360Z,8.90
2023-03-22T09:33:38.758Z,9.50
2023-03-22T09:36:06.552Z,12.20
2023-03-22T09:38:35.439Z,9.17
2023-03-22T09:41:12.886Z,8.77
2023-03-22T09:43:46.968Z,7.23
2023-03-22T09:46:22.403Z,9.27
2023-03-22T09:48:50.705Z,8.77
2023-03-22T09:51:44.956Z,9.70
2023-03-22T09:54:33.104Z,8.40
2023-03-22T09:57:38.934Z,11.23
2023-03-22T10:01:06.926Z,10.67
2023-03-22T10:04:10.609Z,8.37
2023-03-22T10:06:38.002Z,9.17
2023-03-22T10:09:32.439Z,8.17
2023-03-22T10:12:18.271Z,9.90
2023-03-22T10:15:24.255Z,8.47
2023-03-22T10:17:55.534Z,8.90
2023-03-22T10:20:42.554Z,9.37
2023-03-22T10:23:17.717Z,8.73
2023-03-22T10:25:44.971Z,8.30
2023-03-22T10:28:41.222Z,10.33
2023-03-22T10:31:17.506Z,7.67
2023-03-22T10:34:02.464Z,10.30
2023-03-22T10:36:35.015Z,8.80
2023-03-22T10:39:29.865Z,11.50
2023-03-22T10:42:02.196Z,10.90
2023-03-22T10:44:36.251Z,8.00
2023-03-22T10:47:08.116Z,9.80
2023-03-22T10:49:45.593Z,8.23
2023-03-22T10:52:42.023Z,8.20
2023-03-22T10:55:16.899Z,7.77
2023-03-22T10:58:10.394Z,9.87
2023-03-22T11:00:41.182Z,8.13
2023-03-22T11:03:17.441Z,8.40
2023-03-22T11:06:03.091Z,8.47
2023-03-22T11:08:39.551Z,7.73
2023-03-22T11:11:15.682Z,8.73
2023-03-22T11:13:43.281Z,8.37
2023-03-22T11:16:10.670Z,8.90
2023-03-22T11:18:41.874Z,8.27
2023-03-22T11:21:16.551Z,8.70
2023-03-22T11:23:57.792Z,8.73
2023-03-22T11:26:30.810Z,6.93
2023-03-22T11:29:06.727Z,7.47
2023-03-22T11:31:55.921Z,9.83
2023-03-22T11:34:28.470Z,7.13
2023-03-22T11:36:58.838Z,8.90
2023-03-22T11:39:29.753Z,6.73
2023-03-22T11:42:01.554Z,7.07
2023-03-22T11:44:35.396Z,8.50
2023-03-22T11:47:04.443Z,8.17
2023-03-22T11:49:47.204Z,13.00
2023-03-22T11:52:26.572Z,8.77
2023-03-22T11:54:55.811Z,9.13
2023-03-22T11:57:30.762Z,7.90
2023-03-22T12:00:08.037Z,8.67
2023-03-22T12:02:45.133Z,8.23
2023-03-22T12:05:27.170Z,8.90
2023-03-22T12:08:11.512Z,10.23
2023-03-22T12:10:42.857Z,8.73
2023-03-22T12:13:36.364Z,8.77
2023-03-22T12:16:06.902Z,7.13
2023-03-22T12:19:27.133Z,8.83
2023-03-22T12:21:55.757Z,7.93
2023-03-22T12:24:32.741Z,8.47
2023-03-22T12:27:16.823Z,8.37
2023-03-22T12:30:01.781Z,7.60
2023-03-22T12:32:42.113Z,7.30
2023-03-22T12:35:18.986Z,10.03
2023-03-22T12:37:52.482Z,10.57
2023-03-22T12:40:32.564Z,7.77
2023-03-22T12:43:08.096Z,8.83
2023-03-22T12:45:42.623Z,9.37
2023-03-22T12:48:22.342Z,8.23
2023-03-22T12:51:00.759Z,5.93
2023-03-22T12:53:45.769Z,9.87
2023-03-22T12:56:18.020Z,7.10
2023-03-22T12:58:56.417Z,7.10
2023-03-22T13:01:52.123Z,6.43
2023-03-22T13:04:37.758Z,8.27
2023-03-22T13:07:32.661Z,7.63
2023-03-22T13:10:01.706Z,4.87
2023-03-22T13:12:33.057Z,6.03
2023-03-22T13:15:42.188Z,6.93
2023-03-22T13:18:35.754Z,7.10
2023-03-22T13:21:19.231Z,7.43
2023-03-22T13:24:09.839Z,6.40
2023-03-22T13:26:53.310Z,5.43
2023-03-22T13:29:24.790Z,4.63
2023-03-22T13:31:52.468Z,4.53
2023-03-22T13:34:33.942Z,3.77
2023-03-22T13:37:05.321Z,4.10
2023-03-22T13:39:34.767Z,4.43
2023-03-22T13:42:22.858Z,4.10
2023-03-22T13:45:03.536Z,4.53
2023-03-22T13:47:38.337Z,4.87
2023-03-22T13:50:29.530Z,5.67
2023-03-22T13:53:06.565Z,5.60
2023-03-22T13:56:01.264Z,5.30
2023-03-22T13:58:46.583Z,4.53
2023-03-22T14:01:37.607Z,4.77
2023-03-22T14:04:14.381Z,5.17
2023-03-22T14:06:57.549Z,3.97
2023-03-22T14:09:34.509Z,4.07
2023-03-22T14:12:23.121Z,5.80
2023-03-22T14:15:02.469Z,4.90
2023-03-22T14:17:41.827Z,3.60
2023-03-22T14:20:15.840Z,6.13
